Time;durP1;ratioP1;P1;durP2;ratioP2;P2;SDS_P1;SDS_P2;PMS_P1;PMS_P2;Temp;Humidity;BMP_temperature;BMP_pressure;BME280_temperature;BME280_humidity;BME280_pressure;Samples;Min_cycle;Max_cycle;Signal;HPM_P1;HPM_P2
2023/12/25 00:02:16;;;;;;;;;;;;;;;7.55;100.00;97834.34;1731539;83;26285;-64
2023/12/25 00:04:45;;;;;;;6.55;3.75;;;;;;;7.60;100.00;97842.15;1729023;83;25622;-63
2023/12/25 00:07:12;;;;;;;4.22;3.60;;;;;;;7.63;100.00;97834.73;1728935;83;27513;-63
2023/12/25 00:09:40;;;;;;;4.00;3.50;;;;;;;7.66;100.00;97838.84;1729033;83;26193;-63
2023/12/25 00:12:09;;;;;;;3.75;3.35;;;;;;;7.69;100.00;97842.73;1728954;83;25571;-63
2023/12/25 00:14:38;;;;;;;5.85;3.58;;;;;;;7.73;100.00;97837.43;1729064;83;26645;-63
2023/12/25 00:17:06;;;;;;;5.20;3.10;;;;;;;7.77;100.00;97840.42;1729004;83;25478;-63
2023/12/25 00:19:35;;;;;;;3.95;3.20;;;;;;;7.81;100.00;97833.20;1729106;83;28352;-63
2023/12/25 00:22:03;;;;;;;5.20;3.50;;;;;;;7.85;100.00;97820.63;1701929;83;25497;-63
2023/12/25 00:24:32;;;;;;;4.00;3.33;;;;;;;7.89;100.00;97832.04;1729108;83;25439;-63
2023/12/25 00:27:01;;;;;;;3.87;3.30;;;;;;;7.93;100.00;97830.20;1728892;83;26502;-63
2023/12/25 00:29:28;;;;;;;3.87;3.20;;;;;;;7.96;100.00;97841.61;1729007;83;25415;-63
2023/12/25 00:31:55;;;;;;;4.65;3.58;;;;;;;7.98;100.00;97848.77;1728954;83;27684;-63
2023/12/25 00:34:23;;;;;;;4.08;3.08;;;;;;;8.00;100.00;97850.53;1702020;83;25616;-63
2023/12/25 00:36:51;;;;;;;4.05;3.65;;;;;;;8.03;100.00;97849.27;1700156;83;25731;-62
2023/12/25 00:39:19;;;;;;;4.12;3.22;;;;;;;8.06;100.00;97853.75;1712660;83;25699;-62
2023/12/25 00:41:48;;;;;;;3.67;3.25;;;;;;;8.08;100.00;97854.17;1712888;83;32727;-63
2023/12/25 00:44:17;;;;;;;4.85;3.90;;;;;;;8.10;100.00;97845.17;1712695;83;28123;-62
2023/12/25 00:46:45;;;;;;;4.77;4.13;;;;;;;8.11;100.00;97862.33;1712879;83;25458;-62
2023/12/25 00:49:15;;;;;;;5.42;4.10;;;;;;;8.14;100.00;97845.47;1712689;83;25541;-62
2023/12/25 00:51:43;;;;;;;4.55;3.90;;;;;;;8.17;100.00;97858.78;1712755;83;25591;-62
2023/12/25 00:54:11;;;;;;;4.30;3.90;;;;;;;8.20;100.00;97853.47;1712764;83;25654;-62
2023/12/25 00:56:39;;;;;;;5.80;4.05;;;;;;;8.23;100.00;97850.66;1712718;83;27349;-62
2023/12/25 00:59:07;;;;;;;4.33;3.92;;;;;;;8.26;100.00;97822.22;1713866;83;25429;-62
2023/12/25 01:01:36;;;;;;;4.97;4.17;;;;;;;8.27;100.00;97831.30;1712850;83;25525;-62
2023/12/25 01:04:04;;;;;;;4.65;4.20;;;;;;;8.31;100.00;97833.52;1712608;83;25674;-61
2023/12/25 01:06:33;;;;;;;4.80;4.10;;;;;;;8.33;100.00;97847.41;1712736;83;25456;-61
2023/12/25 01:09:01;;;;;;;6.37;4.40;;;;;;;8.34;100.00;97850.33;1712898;83;28054;-61
2023/12/25 01:11:29;;;;;;;4.92;4.08;;;;;;;8.36;100.00;97826.50;1712603;83;25703;-60
2023/12/25 01:13:58;;;;;;;4.55;4.15;;;;;;;8.37;100.00;97825.35;1712820;83;29617;-62
2023/12/25 01:16:26;;;;;;;5.30;4.08;;;;;;;8.39;100.00;97834.43;1712669;83;25623;-62
2023/12/25 01:18:55;;;;;;;4.40;4.00;;;;;;;8.39;100.00;97832.53;1712882;83;25658;-64
2023/12/25 01:21:24;;;;;;;4.83;3.87;;;;;;;8.46;100.00;97858.07;1712719;83;27919;-63
2023/12/25 01:23:52;;;;;;;4.20;3.75;;;;;;;8.40;100.00;97839.47;1712584;83;25616;-62
2023/12/25 01:26:21;;;;;;;3.30;3.00;;;;;;;8.40;100.00;97850.23;1712956;83;25466;-62
2023/12/25 01:28:49;;;;;;;3.90;3.02;;;;;;;8.42;100.00;97849.89;1712749;83;25692;-63
2023/12/25 01:31:17;;;;;;;3.22;2.98;;;;;;;8.44;100.00;97840.91;1712695;83;25563;-63
2023/12/25 01:33:45;;;;;;;5.65;3.80;;;;;;;8.47;100.00;97860.41;1712681;83;27408;-64
2023/12/25 01:36:14;;;;;;;3.42;3.10;;;;;;;8.49;100.00;97861.41;1712605;83;25615;-65
2023/12/25 01:38:42;;;;;;;3.72;3.33;;;;;;;8.51;100.00;97870.71;1703714;82;25485;-65
2023/12/25 01:41:10;;;;;;;4.40;4.00;;;;;;;8.51;100.00;97863.17;1700237;84;25608;-65
2023/12/25 01:43:38;;;;;;;3.72;3.42;;;;;;;8.50;100.00;97861.06;1700280;84;25611;-64
2023/12/25 01:46:06;;;;;;;4.33;3.72;;;;;;;8.50;100.00;97859.71;1700268;84;28053;-65
2023/12/25 01:48:34;;;;;;;4.37;3.98;;;;;;;8.50;100.00;97852.97;1700147;84;25874;-64
2023/12/25 01:51:04;;;;;;;4.55;3.87;;;;;;;8.51;100.00;97862.62;1700256;84;25656;-64
2023/12/25 01:53:32;;;;;;;5.60;4.20;;;;;;;8.51;100.00;97863.98;1700418;84;25843;-64
2023/12/25 01:56:00;;;;;;;4.47;4.08;;;;;;;8.51;100.00;97877.45;1700369;84;25447;-63
2023/12/25 01:58:29;;;;;;;4.47;4.08;;;;;;;8.51;100.00;97869.91;1700489;84;28369;-63
2023/12/25 02:00:57;;;;;;;3.80;3.40;;;;;;;8.51;100.00;97874.75;1700174;84;25623;-63
2023/12/25 02:03:25;;;;;;;3.87;3.12;;;;;;;8.51;100.00;97882.03;1700269;84;25468;-63
2023/12/25 02:05:51;;;;;;;3.83;3.05;;;;;;;8.52;100.00;97882.26;1676029;84;26673;-63
2023/12/25 02:08:20;;;;;;;2.83;2.40;;;;;;;8.53;100.00;97869.78;1699602;84;25486;-63
2023/12/25 02:10:48;;;;;;;4.43;2.40;;;;;;;8.54;100.00;97851.70;1700474;84;27565;-64
2023/12/25 02:13:16;;;;;;;2.85;1.90;;;;;;;8.55;100.00;97853.27;1699531;84;25670;-63
2023/12/25 02:15:44;;;;;;;2.40;1.90;;;;;;;8.54;100.00;97886.14;1700350;84;25678;-63
2023/12/25 02:18:13;;;;;;;1.62;1.52;;;;;;;8.52;100.00;97877.64;1700376;84;25800;-63
2023/12/25 02:20:42;;;;;;;1.85;1.60;;;;;;;8.51;100.00;97869.91;1700591;84;25467;-63
2023/12/25 02:23:16;;;;;;;1.80;1.50;;;;;;;8.49;100.00;97879.69;1700637;84;28070;-63
2023/12/25 02:25:56;;;;;;;1.95;1.10;;;;;;;8.47;100.00;97881.20;1700377;84;25603;-63
2023/12/25 02:28:25;;;;;;;1.55;1.10;;;;;;;8.45;100.00;97886.16;1700425;84;25676;-63
2023/12/25 02:30:53;;;;;;;4.08;1.35;;;;;;;8.42;100.00;97872.78;1700476;84;25696;-63
2023/12/25 02:33:22;;;;;;;1.80;0.90;;;;;;;8.39;100.00;97885.61;1700547;84;25643;-63
2023/12/25 02:35:50;;;;;;;1.02;0.93;;;;;;;8.36;100.00;97882.27;1700385;84;27347;-63
2023/12/25 02:38:18;;;;;;;1.75;0.85;;;;;;;8.33;100.00;97900.50;1712505;82;25652;-64
2023/12/25 02:40:46;;;;;;;1.17;0.98;;;;;;;8.29;100.00;97917.13;1729187;83;25573;-63
2023/12/25 02:43:14;;;;;;;2.15;0.70;;;;;;;8.25;100.00;97921.67;1729131;83;26270;-64
2023/12/25 02:45:41;;;;;;;0.88;0.60;;;;;;;8.21;100.00;97930.45;1729077;83;25572;-63
2023/12/25 02:48:09;;;;;;;2.67;0.60;;;;;;;8.18;100.00;97926.33;1729033;83;27349;-63
2023/12/25 02:50:37;;;;;;;2.80;0.98;;;;;;;8.14;100.00;97928.15;1729090;83;25395;-64
2023/12/25 02:53:05;;;;;;;2.12;0.60;;;;;;;8.11;100.00;97922.14;1702222;83;25678;-64
2023/12/25 02:55:33;;;;;;;1.02;0.50;;;;;;;8.08;100.00;97930.91;1675957;83;25608;-65
2023/12/25 02:58:03;;;;;;;0.90;0.50;;;;;;;8.04;100.00;97935.64;1729222;83;25493;-63
2023/12/25 03:00:31;;;;;;;1.10;0.60;;;;;;;8.02;100.00;97935.78;1729278;83;27571;-64
2023/12/25 03:02:59;;;;;;;1.22;0.57;;;;;;;8.01;100.00;97924.22;1728972;83;25409;-64
2023/12/25 03:05:28;;;;;;;1.17;0.95;;;;;;;8.02;100.00;97931.75;1729220;83;25651;-63
2023/12/25 03:07:57;;;;;;;0.78;0.78;;;;;;;8.01;100.00;97959.79;1729135;83;26613;-64
2023/12/25 03:10:26;;;;;;;1.25;0.85;;;;;;;8.01;100.00;97951.14;1729178;83;25639;-64
2023/12/25 03:12:54;;;;;;;1.70;1.05;;;;;;;8.02;100.00;97963.48;1729043;83;28397;-64
2023/12/25 03:15:22;;;;;;;1.15;0.93;;;;;;;8.02;100.00;97945.21;1728918;83;25704;-64
2023/12/25 03:17:51;;;;;;;1.22;1.00;;;;;;;8.02;100.00;97941.17;1702114;83;25562;-64
2023/12/25 03:20:19;;;;;;;1.70;1.17;;;;;;;8.04;100.00;97944.29;1729288;83;25744;-64
2023/12/25 03:22:47;;;;;;;2.40;1.12;;;;;;;8.05;100.00;97951.22;1729026;83;25504;-64
2023/12/25 03:25:15;;;;;;;3.10;0.95;;;;;;;8.06;100.00;97972.21;1729024;83;27541;-61
2023/12/25 03:27:43;;;;;;;2.05;0.80;;;;;;;8.07;100.00;97975.91;1702145;83;25723;-64
2023/12/25 03:30:12;;;;;;;1.57;1.00;;;;;;;8.10;100.00;97978.45;1728995;83;25640;-64
2023/12/25 03:32:40;;;;;;;1.10;0.98;;;;;;;8.12;100.00;97974.84;1729130;83;34689;-64
2023/12/25 03:35:09;;;;;;;1.45;0.68;;;;;;;8.12;100.00;97995.84;1729027;83;25418;-64
2023/12/25 03:37:38;;;;;;;1.35;0.90;;;;;;;8.13;100.00;97978.53;1728691;82;28140;-63
2023/12/25 03:40:07;;;;;;;1.47;0.68;;;;;;;8.14;100.00;97967.99;1700440;84;25485;-64
2023/12/25 03:42:37;;;;;;;;;;;;;;;8.15;100.00;97984.34;1702911;84;25495;-65
2023/12/25 03:45:07;;;;;;;3.72;0.80;;;;;;;8.14;100.00;97978.77;1700501;84;26486;-64
2023/12/25 03:47:35;;;;;;;3.80;0.70;;;;;;;8.14;100.00;97989.53;1700391;84;25584;-65
2023/12/25 03:50:04;;;;;;;2.83;0.78;;;;;;;8.11;100.00;97982.14;1700332;84;28086;-66
2023/12/25 03:52:32;;;;;;;1.77;0.80;;;;;;;8.11;100.00;97985.41;1700407;84;25480;-64
2023/12/25 03:55:01;;;;;;;2.77;0.57;;;;;;;8.09;100.00;97987.11;1700335;84;25619;-64
2023/12/25 03:57:29;;;;;;;3.17;0.85;;;;;;;8.09;100.00;97994.38;1700303;84;25644;-64
2023/12/25 03:59:57;;;;;;;1.32;0.90;;;;;;;8.06;100.00;97991.84;1700370;84;25448;-64
2023/12/25 04:02:25;;;;;;;2.62;1.00;;;;;;;8.04;100.00;98002.95;1700331;84;27521;-64
2023/12/25 04:04:53;;;;;;;3.65;1.05;;;;;;;8.05;100.00;98001.03;1699570;84;25682;-65
2023/12/25 04:07:21;;;;;;;1.27;0.90;;;;;;;8.05;100.00;98001.03;1700315;84;25722;-65
2023/12/25 04:09:52;;;;;;;2.42;0.90;;;;;;;8.07;100.00;98008.76;1700412;84;26624;-64
2023/12/25 04:12:20;;;;;;;3.55;1.00;;;;;;;8.09;100.00;98026.14;1700398;84;25467;-64
2023/12/25 04:14:48;;;;;;;4.15;0.90;;;;;;;8.09;100.00;98015.92;1676586;84;28379;-64
2023/12/25 04:17:17;;;;;;;4.33;0.90;;;;;;;8.07;100.00;98016.30;1700277;84;25627;-63
2023/12/25 04:19:45;;;;;;;1.12;0.70;;;;;;;8.08;100.00;98021.11;1700322;84;25436;-63
2023/12/25 04:22:13;;;;;;;2.98;0.82;;;;;;;8.08;100.00;98038.61;1700309;84;26616;-62
2023/12/25 04:24:41;;;;;;;1.87;1.02;;;;;;;8.07;100.00;98037.83;1700333;84;25476;-63
2023/12/25 04:27:10;;;;;;;1.95;0.90;;;;;;;8.06;100.00;98060.48;1700460;84;33602;-64
2023/12/25 04:29:39;;;;;;;4.10;1.20;;;;;;;8.04;100.00;98055.45;1700346;84;26066;-64
2023/12/25 04:32:08;;;;;;;1.50;0.70;;;;;;;8.00;100.00;98053.78;1700447;84;25563;-64
2023/12/25 04:34:36;;;;;;;4.22;1.10;;;;;;;7.98;100.00;98062.78;1676227;84;25663;-64
2023/12/25 04:37:04;;;;;;;1.98;0.90;;;;;;;7.95;100.00;98079.07;1700337;84;25625;-63
2023/12/25 04:39:33;;;;;;;2.47;0.93;;;;;;;7.92;100.00;98064.95;1719873;83;26827;-63
2023/12/25 04:42:03;;;;;;;6.17;1.10;;;;;;;7.91;100.00;98082.22;1729162;83;26074;-63
2023/12/25 04:44:31;;;;;;;2.37;0.72;;;;;;;7.93;100.00;98098.80;1728997;83;25426;-63
2023/12/25 04:46:59;;;;;;;2.75;1.10;;;;;;;7.86;100.00;98094.01;1728900;83;25940;-63
2023/12/25 04:49:27;;;;;;;3.70;1.02;;;;;;;7.86;100.00;98110.73;1728943;83;25648;-62
2023/12/25 04:51:56;;;;;;;2.37;0.95;;;;;;;7.84;100.00;98099.53;1729082;83;28380;-63
2023/12/25 04:54:22;;;;;;;2.17;0.90;;;;;;;7.82;100.00;98103.14;1728851;83;25993;-63
2023/12/25 04:56:53;;;;;;;4.50;1.20;;;;;;;7.80;100.00;98089.25;1728913;83;25542;-63
2023/12/25 04:59:21;;;;;;;3.92;1.02;;;;;;;7.78;100.00;98085.55;1729023;83;25969;-63
2023/12/25 05:01:50;;;;;;;3.67;1.20;;;;;;;7.77;100.00;98099.34;1676030;83;25625;-63
2023/12/25 05:04:16;;;;;;;3.60;1.15;;;;;;;7.75;100.00;98102.95;1728916;83;27550;-63
2023/12/25 05:06:45;;;;;;;4.70;1.10;;;;;;;7.71;100.00;98100.14;1728826;83;26006;-63
2023/12/25 05:09:13;;;;;;;1.85;0.93;;;;;;;7.70;100.00;98103.97;1729066;83;35130;-63
2023/12/25 05:11:41;;;;;;;2.65;0.78;;;;;;;7.69;100.00;98102.39;1728912;83;26816;-63
2023/12/25 05:14:07;;;;;;;4.50;1.00;;;;;;;7.69;100.00;98125.27;1728961;83;25410;-63
2023/12/25 05:16:35;;;;;;;3.12;0.80;;;;;;;7.69;100.00;98106.43;1728950;83;28377;-63
2023/12/25 05:19:04;;;;;;;3.42;1.10;;;;;;;7.72;100.00;98118.43;1728839;83;25705;-63
2023/12/25 05:21:31;;;;;;;2.77;0.88;;;;;;;7.74;100.00;98106.75;1729049;83;25409;-63
2023/12/25 05:24:01;;;;;;;2.10;1.10;;;;;;;7.77;100.00;98112.80;1729027;83;26805;-63
2023/12/25 05:26:28;;;;;;;2.77;1.45;;;;;;;7.78;100.00;98120.53;1728907;83;25581;-63
2023/12/25 05:28:56;;;;;;;4.33;1.60;;;;;;;7.79;100.00;98122.08;1728852;83;28063;-64
2023/12/25 05:31:23;;;;;;;2.75;1.02;;;;;;;7.79;100.00;98122.66;1728837;83;26077;-63
2023/12/25 05:33:50;;;;;;;4.08;1.22;;;;;;;7.79;100.00;98122.08;1728939;83;25553;-63
2023/12/25 05:36:18;;;;;;;2.70;0.98;;;;;;;7.78;100.00;98125.92;1728878;83;26389;-64
2023/12/25 05:38:46;;;;;;;2.72;1.40;;;;;;;7.76;100.00;98118.73;1724995;83;25735;-63
2023/12/25 05:41:15;;;;;;;3.10;1.42;;;;;;;7.74;100.00;98126.37;1712654;83;28531;-64
2023/12/25 05:43:42;;;;;;;2.05;1.55;;;;;;;7.74;100.00;98126.37;1712606;83;25615;-64
2023/12/25 05:46:09;;;;;;;2.35;1.37;;;;;;;7.73;100.00;98130.20;1712670;83;25550;-64
2023/12/25 05:48:37;;;;;;;3.08;1.47;;;;;;;7.72;100.00;98129.97;1712593;83;26945;-63
2023/12/25 05:51:07;;;;;;;3.40;2.17;;;;;;;7.73;100.00;98117.28;1712994;83;25660;-63
2023/12/25 05:53:35;;;;;;;3.15;2.00;;;;;;;7.72;100.00;98128.63;1712821;83;27322;-63
2023/12/25 05:56:04;;;;;;;3.67;1.80;;;;;;;7.73;100.00;98118.63;1712733;83;25542;-63
2023/12/25 05:58:30;;;;;;;2.22;1.87;;;;;;;7.73;100.00;98124.02;1690509;83;25480;-62
2023/12/25 06:00:59;;;;;;;1.90;1.80;;;;;;;7.73;100.00;98131.55;1714140;83;26610;-59
2023/12/25 06:03:27;;;;;;;3.25;1.98;;;;;;;7.75;100.00;98123.13;1713016;83;25606;-60
2023/12/25 06:05:58;;;;;;;2.55;1.70;;;;;;;7.76;100.00;98122.77;1712953;83;28362;-60
2023/12/25 06:08:26;;;;;;;2.62;1.70;;;;;;;7.79;100.00;98124.00;1712755;83;25734;-60
2023/12/25 06:10:55;;;;;;;3.33;1.55;;;;;;;7.78;100.00;98128.61;1712988;83;25516;-62
2023/12/25 06:13:23;;;;;;;2.50;1.40;;;;;;;7.80;100.00;98134.42;1712804;83;25899;-60
2023/12/25 06:15:51;;;;;;;1.60;0.90;;;;;;;7.80;100.00;98126.35;1714104;83;25430;-62
2023/12/25 06:18:17;;;;;;;2.05;1.00;;;;;;;7.80;100.00;98127.70;1712819;83;28095;-61
2023/12/25 06:20:46;;;;;;;2.22;1.10;;;;;;;7.79;100.00;98114.01;1712742;83;25500;-62
2023/12/25 06:23:13;;;;;;;;;;;;;;;7.80;100.00;98138.47;1692966;83;25462;-62
2023/12/25 06:25:41;;;;;;;3.30;1.10;;;;;;;7.79;100.00;98131.50;1714089;83;25519;-62
2023/12/25 06:28:08;;;;;;;3.90;1.10;;;;;;;7.79;100.00;98128.81;1712829;83;25497;-62
2023/12/25 06:30:36;;;;;;;3.95;1.00;;;;;;;7.76;100.00;98136.22;1712763;83;28619;-63
2023/12/25 06:33:05;;;;;;;4.97;1.00;;;;;;;7.74;100.00;98143.86;1712734;83;26180;-63
2023/12/25 06:35:33;;;;;;;2.42;1.02;;;;;;;7.72;100.00;98167.64;1712959;83;35072;-63
2023/12/25 06:38:02;;;;;;;2.75;0.90;;;;;;;7.69;100.00;98134.69;1712769;83;26543;-62
2023/12/25 06:40:29;;;;;;;1.87;1.10;;;;;;;7.64;100.00;98126.85;1702688;83;25516;-60
2023/12/25 06:42:56;;;;;;;2.42;1.25;;;;;;;7.59;100.00;98122.48;1700362;84;28028;-62
2023/12/25 06:45:23;;;;;;;2.77;1.40;;;;;;;7.55;100.00;98153.91;1700298;84;25965;-62
2023/12/25 06:47:52;;;;;;;2.65;1.72;;;;;;;7.52;100.00;98163.22;1700415;84;25648;-62
2023/12/25 06:50:20;;;;;;;2.42;1.62;;;;;;;7.48;100.00;98159.08;1700417;84;25391;-62
2023/12/25 06:52:47;;;;;;;4.33;1.87;;;;;;;7.47;100.00;98177.68;1700411;84;25471;-62
2023/12/25 06:55:16;;;;;;;4.12;1.95;;;;;;;7.45;100.00;98175.33;1700354;84;28361;-62
2023/12/25 06:57:43;;;;;;;5.65;1.95;;;;;;;7.46;100.00;98185.55;1700268;84;26096;-62
2023/12/25 07:00:13;;;;;;;5.12;2.52;;;;;;;7.48;100.00;98186.76;1700383;84;25449;-62
2023/12/25 07:02:40;;;;;;;5.55;2.02;;;;;;;7.50;100.00;98181.61;1700446;84;30544;-61
2023/12/25 07:05:09;;;;;;;5.20;2.00;;;;;;;7.52;100.00;98188.20;1700420;84;25506;-63
2023/12/25 07:07:37;;;;;;;2.60;2.22;;;;;;;7.55;100.00;98178.11;1700479;84;33484;-62
2023/12/25 07:10:07;;;;;;;4.95;2.10;;;;;;;7.57;100.00;98193.34;1700323;84;26216;-63
2023/12/25 07:12:35;;;;;;;4.85;1.75;;;;;;;7.59;100.00;98183.03;1700516;84;25668;-63
2023/12/25 07:15:03;;;;;;;5.08;1.80;;;;;;;7.61;100.00;98158.47;1699688;84;25652;-63
2023/12/25 07:17:32;;;;;;;3.35;1.70;;;;;;;7.61;100.00;98170.58;1700398;84;25443;-63
2023/12/25 07:20:00;;;;;;;3.45;1.67;;;;;;;7.63;100.00;98179.12;1700503;84;27324;-63
2023/12/25 07:22:29;;;;;;;2.27;1.45;;;;;;;7.65;100.00;98176.86;1699650;84;25481;-63
2023/12/25 07:24:56;;;;;;;;;;;;;;;7.66;100.00;98168.45;1702910;84;25670;-62
2023/12/25 07:27:24;;;;;;;2.77;1.40;;;;;;;7.69;100.00;98188.50;1700363;84;25946;-62
2023/12/25 07:29:50;;;;;;;3.70;1.47;;;;;;;7.69;100.00;98196.57;1700343;84;25463;-62
2023/12/25 07:32:18;;;;;;;2.47;1.40;;;;;;;7.70;100.00;98183.35;1700338;84;28360;-62
2023/12/25 07:34:45;;;;;;;5.75;1.57;;;;;;;7.72;100.00;98185.13;1700281;84;25849;-62
2023/12/25 07:37:15;;;;;;;4.03;1.47;;;;;;;7.75;100.00;98176.95;1700342;84;25592;-62
2023/12/25 07:39:42;;;;;;;;;;;;;;;7.74;100.00;98182.11;1702758;83;26610;-62
2023/12/25 07:42:10;;;;;;;4.67;1.10;;;;;;;7.75;100.00;98168.88;1700372;84;25491;-62
2023/12/25 07:44:40;;;;;;;6.53;1.40;;;;;;;7.77;100.00;98182.77;1700312;84;28337;-62
2023/12/25 07:47:08;;;;;;;5.55;1.70;;;;;;;7.78;100.00;98189.16;1700375;84;25708;-62
2023/12/25 07:49:34;;;;;;;2.42;1.07;;;;;;;7.81;100.00;98195.76;1700321;84;25483;-61
2023/12/25 07:52:04;;;;;;;6.70;1.32;;;;;;;7.82;100.00;98169.85;1700271;84;26785;-61
2023/12/25 07:54:31;;;;;;;5.75;1.42;;;;;;;7.84;100.00;98192.39;1700500;84;25512;-60
2023/12/25 07:56:59;;;;;;;4.03;1.32;;;;;;;7.85;100.00;98179.16;1700329;84;28365;-60
2023/12/25 07:59:25;;;;;;;4.62;0.95;;;;;;;7.85;100.00;98189.36;1699601;84;26009;-60
2023/12/25 08:01:52;;;;;;;5.33;1.20;;;;;;;7.87;100.00;98187.67;1700395;84;25564;-59
2023/12/25 08:04:18;;;;;;;3.08;1.20;;;;;;;7.88;100.00;98201.33;1700290;84;26652;-59
2023/12/25 08:06:46;;;;;;;4.80;2.00;;;;;;;7.90;100.00;98196.95;1700343;84;25494;-61
2023/12/25 08:09:14;;;;;;;6.45;1.50;;;;;;;7.93;100.00;98194.94;1700298;84;28523;-59
2023/12/25 08:11:42;;;;;;;3.05;0.98;;;;;;;7.95;100.00;98202.91;1651072;84;26021;-60
2023/12/25 08:14:10;;;;;;;5.62;1.25;;;;;;;7.98;100.00;98187.96;1700310;84;25419;-57
2023/12/25 08:16:39;;;;;;;5.55;1.20;;;;;;;8.01;100.00;98187.28;1700411;84;28938;-60
2023/12/25 08:19:07;;;;;;;5.12;1.30;;;;;;;8.03;100.00;98196.56;1700343;84;25694;-59
2023/12/25 08:21:34;;;;;;;4.30;1.25;;;;;;;8.09;100.00;98221.90;1700307;84;27851;-59
2023/12/25 08:24:02;;;;;;;4.67;1.00;;;;;;;8.10;100.00;98209.45;1700214;84;25629;-58
2023/12/25 08:26:30;;;;;;;3.40;1.45;;;;;;;8.13;100.00;98204.72;1700322;84;25564;-58
2023/12/25 08:28:58;;;;;;;6.05;1.35;;;;;;;8.15;100.00;98211.89;1700215;84;26485;-59
2023/12/25 08:31:25;;;;;;;5.12;1.55;;;;;;;8.16;100.00;98205.39;1700355;84;25427;-59
2023/12/25 08:33:53;;;;;;;2.60;1.30;;;;;;;8.20;100.00;98194.71;1700294;84;27248;-58
2023/12/25 08:36:22;;;;;;;9.95;1.42;;;;;;;8.23;100.00;98204.23;1700210;84;26005;-59
2023/12/25 08:38:50;;;;;;;7.30;1.60;;;;;;;8.28;100.00;98199.73;1700446;84;25580;-60
2023/12/25 08:41:18;;;;;;;7.60;1.22;;;;;;;8.32;100.00;98200.03;1700201;83;26815;-60
2023/12/25 08:43:45;;;;;;;4.67;1.30;;;;;;;8.37;100.00;98200.35;1700341;84;25652;-61
2023/12/25 08:46:12;;;;;;;9.45;1.45;;;;;;;8.41;100.00;98191.78;1700305;84;28373;-61
2023/12/25 08:48:40;;;;;;;5.03;1.32;;;;;;;8.45;100.00;98209.45;1700195;84;26016;-61
2023/12/25 08:51:08;;;;;;;8.45;1.42;;;;;;;8.48;100.00;98206.04;1700258;84;25617;-60
2023/12/25 08:53:35;;;;;;;3.58;1.57;;;;;;;8.54;100.00;98204.67;1700271;84;25653;-60
2023/12/25 08:56:05;;;;;;;6.80;1.50;;;;;;;8.60;100.00;98202.72;1700298;84;25534;-60
2023/12/25 08:58:32;;;;;;;9.63;1.57;;;;;;;8.69;100.00;98213.91;1700426;84;27348;-61
2023/12/25 09:00:58;;;;;;;8.23;2.05;;;;;;;8.78;100.00;98213.16;1700274;84;25458;-60
2023/12/25 09:03:26;;;;;;;6.53;1.55;;;;;;;8.85;100.00;98207.16;1700278;84;25625;-60
2023/12/25 09:05:54;;;;;;;4.10;1.30;;;;;;;8.87;100.00;98211.09;1699570;84;25905;-60
2023/12/25 09:08:23;;;;;;;5.62;1.72;;;;;;;8.91;100.00;98216.56;1700406;84;25618;-61
2023/12/25 09:10:52;;;;;;;5.78;1.20;;;;;;;8.93;100.00;98211.60;1700315;84;28354;-60
2023/12/25 09:13:20;;;;;;;3.60;1.47;;;;;;;8.95;100.00;98218.77;1700215;84;25749;-60
2023/12/25 09:15:46;;;;;;;6.20;1.57;;;;;;;9.05;100.00;98210.16;1676061;84;25581;-60
2023/12/25 09:18:14;;;;;;;2.83;1.30;;;;;;;9.09;100.00;98210.23;1700223;84;26684;-60
2023/12/25 09:20:42;;;;;;;6.53;1.67;;;;;;;9.13;100.00;98215.16;1700296;84;25574;-59
2023/12/25 09:23:10;;;;;;;5.65;1.60;;;;;;;9.12;100.00;98200.09;1700276;84;27692;-60
2023/12/25 09:25:38;;;;;;;4.40;1.55;;;;;;;9.13;100.00;98215.16;1700165;84;25732;-60
2023/12/25 09:28:07;;;;;;;3.70;1.47;;;;;;;9.13;100.00;98201.10;1700273;84;25458;-59
2023/12/25 09:30:33;;;;;;;5.37;1.32;;;;;;;9.12;100.00;98194.13;1676346;84;25804;-60
2023/12/25 09:33:01;;;;;;;5.65;1.37;;;;;;;9.15;100.00;98197.48;1700275;84;25413;-60
2023/12/25 09:35:28;;;;;;;2.27;1.32;;;;;;;9.27;100.00;98208.73;1699603;84;27663;-60
2023/12/25 09:37:55;;;;;;;5.87;1.92;;;;;;;9.33;100.00;98204.65;1700177;84;26000;-61
2023/12/25 09:40:22;;;;;;;6.85;1.62;;;;;;;9.32;99.73;98213.09;1700162;82;25563;-60
2023/12/25 09:42:51;;;;;;;5.85;1.85;;;;;;;9.29;99.93;98198.95;1700233;84;25433;-60
2023/12/25 09:45:19;;;;;;;6.70;2.22;;;;;;;9.27;100.00;98200.64;1700303;84;25429;-60
2023/12/25 09:47:47;;;;;;;2.98;1.57;;;;;;;9.26;99.03;98196.94;1700398;84;27326;-59
2023/12/25 09:50:18;;;;;;;4.58;1.50;;;;;;;9.24;99.15;98194.59;1700161;84;25715;-60
2023/12/25 09:52:45;;;;;;;5.20;1.85;;;;;;;9.23;99.01;98197.09;1700332;84;25222;-61
2023/12/25 09:55:14;;;;;;;3.25;1.57;;;;;;;9.19;96.94;98188.13;1700240;84;26689;-58
2023/12/25 09:57:44;;;;;;;4.67;1.90;;;;;;;9.22;97.05;98199.56;1700314;84;25649;-58
2023/12/25 10:00:14;;;;;;;6.55;1.98;;;;;;;9.24;98.05;98191.12;1675078;84;28430;-58
2023/12/25 10:02:44;;;;;;;5.70;1.75;;;;;;;9.26;98.53;98186.95;1700323;84;25440;-58
2023/12/25 10:05:12;;;;;;;6.97;1.55;;;;;;;9.38;98.01;98177.16;1700314;84;25461;-59
2023/12/25 10:07:38;;;;;;;4.72;2.02;;;;;;;9.54;98.36;98188.13;1699584;84;26587;-58
2023/12/25 10:10:12;;;;;;;3.62;1.70;;;;;;;9.61;98.56;98172.66;1700260;84;25653;-59
2023/12/25 10:12:47;;;;;;;3.77;1.80;;;;;;;9.64;98.03;98198.17;1676173;84;27406;-58
2023/12/25 10:15:16;;;;;;;6.33;1.82;;;;;;;9.62;96.82;98186.92;1700198;84;25712;-58
2023/12/25 10:17:45;;;;;;;5.80;2.02;;;;;;;9.63;96.03;98191.97;1676449;84;25540;-59
2023/12/25 10:20:17;;;;;;;5.05;1.72;;;;;;;9.63;96.11;98189.27;1699553;84;26576;-59
2023/12/25 10:22:44;;;;;;;4.75;1.75;;;;;;;9.63;96.10;98187.16;1700027;84;25656;-61
2023/12/25 10:25:15;;;;;;;4.83;2.00;;;;;;;9.61;95.08;98181.33;1700219;84;28314;-60
2023/12/25 10:27:44;;;;;;;4.80;1.95;;;;;;;9.60;95.88;98195.37;1700354;84;25563;-60
2023/12/25 10:30:21;;;;;;;3.13;1.83;;;;;;;9.59;94.96;98197.11;1699814;84;25641;-59
2023/12/25 10:32:50;;;;;;;4.03;1.70;;;;;;;9.57;94.47;98199.34;1700243;84;25644;-59
2023/12/25 10:35:19;;;;;;;5.42;2.00;;;;;;;9.54;93.58;98192.18;1700465;84;25451;-60
2023/12/25 10:37:47;;;;;;;5.78;1.92;;;;;;;9.53;94.58;98183.08;1700529;84;28079;-60
2023/12/25 10:40:25;;;;;;;5.30;1.65;;;;;;;9.51;93.90;98189.41;1705347;83;25585;-60
2023/12/25 10:42:57;;;;;;;4.67;1.60;;;;;;;9.49;93.50;98190.33;1729028;83;25483;-59
2023/12/25 10:45:31;;;;;;;4.67;1.52;;;;;;;9.49;94.41;98198.43;1729032;83;26755;-60
2023/12/25 10:48:02;;;;;;;6.33;1.70;;;;;;;9.45;94.18;98199.70;1729110;83;25601;-60
2023/12/25 10:50:36;;;;;;;5.03;1.90;;;;;;;9.43;93.36;98207.92;1729060;83;27370;-59
2023/12/25 10:53:06;;;;;;;4.72;1.87;;;;;;;9.41;93.58;98198.83;1728601;83;26228;-58
2023/12/25 10:55:43;;;;;;;4.25;1.65;;;;;;;9.41;93.73;98210.20;1729203;83;25640;-59
2023/12/25 10:58:16;;;;;;;6.08;2.22;;;;;;;9.39;93.26;98196.28;1729045;83;26460;-59
2023/12/25 11:00:56;;;;;;;3.05;1.92;;;;;;;9.37;93.54;98195.28;1726307;83;25672;-60
2023/12/25 11:03:24;;;;;;;7.80;2.22;;;;;;;9.37;93.42;98189.11;1729086;83;27901;-60
2023/12/25 11:05:55;;;;;;;3.33;1.92;;;;;;;9.38;93.49;98186.61;1729068;83;25721;-60
2023/12/25 11:08:23;;;;;;;6.42;1.98;;;;;;;9.39;94.57;98182.79;1729036;83;25556;-60
2023/12/25 11:10:52;;;;;;;5.37;1.95;;;;;;;9.47;95.52;98179.11;1728947;83;25691;-60
2023/12/25 11:13:21;;;;;;;7.12;2.00;;;;;;;9.46;94.81;98170.22;1729187;83;25499;-60
2023/12/25 11:15:47;;;;;;;5.17;1.82;;;;;;;9.52;94.81;98178.84;1728980;83;28069;-62
2023/12/25 11:18:18;;;;;;;5.20;2.02;;;;;;;9.58;95.45;98173.94;1728948;83;25953;-62
2023/12/25 11:21:08;;;;;;;4.62;1.82;;;;;;;9.66;93.49;98166.98;1729056;83;25204;-60
2023/12/25 11:23:44;;;;;;;6.17;1.90;;;;;;;10.09;95.40;98190.77;1729184;83;26316;-61
2023/12/25 11:26:12;;;;;;;4.92;1.77;;;;;;;10.99;93.28;98175.36;1702237;83;25432;-60
2023/12/25 11:28:47;;;;;;;6.95;1.85;;;;;;;11.14;89.10;98192.02;1729005;83;27332;-62
2023/12/25 11:31:20;;;;;;;9.80;2.22;;;;;;;10.99;88.76;98182.90;1726154;83;25698;-63
2023/12/25 11:33:49;;;;;;;3.65;1.95;;;;;;;10.85;88.68;98186.74;1729025;83;25568;-61
2023/12/25 11:36:18;;;;;;;3.52;1.92;;;;;;;10.72;86.95;98191.54;1729111;83;26481;-62
2023/12/25 11:38:57;;;;;;;4.03;1.82;;;;;;;10.55;86.44;98179.86;1729254;83;25545;-62
2023/12/25 11:41:25;;;;;;;3.80;1.85;;;;;;;10.44;87.13;98177.75;1719997;83;28209;-61
2023/12/25 11:43:52;;;;;;;2.83;1.65;;;;;;;10.33;86.21;98181.41;1712746;83;25663;-62